Time;durP1;ratioP1;P1;durP2;ratioP2;P2;SDS_P1;SDS_P2;PMS_P1;PMS_P2;Temp;Humidity;BMP_temperature;BMP_pressure;BME280_temperature;BME280_humidity;BME280_pressure;Samples;Min_cycle;Max_cycle;Signal;HPM_P1;HPM_P2
2022/03/31 00:02:03;;;;;;;2.47;1.05;;;3.40;99.90;;;;;;5095803;28;20126;-77
2022/03/31 00:04:30;;;;;;;2.20;0.93;;;3.40;99.90;;;;;;5114445;27;20473;-77
2022/03/31 00:06:55;;;;;;;3.53;0.70;;;3.50;99.90;;;;;;5124158;27;20043;-77
2022/03/31 00:09:21;;;;;;;4.90;1.45;;;3.40;99.90;;;;;;5092568;28;20028;-77
2022/03/31 00:11:47;;;;;;;3.72;0.93;;;3.40;99.90;;;;;;5109140;28;20051;-76
2022/03/31 00:14:13;;;;;;;2.92;0.60;;;3.30;99.90;;;;;;5111096;28;20193;-77
2022/03/31 00:16:38;;;;;;;3.70;1.45;;;3.20;99.90;;;;;;5110294;28;20047;-78
2022/03/31 00:19:04;;;;;;;7.20;1.10;;;3.20;99.90;;;;;;5126480;27;20047;-77
2022/03/31 00:24:52;;;;;;;7.70;2.13;;;3.20;99.90;;;;;;5114322;27;20447;-78
2022/03/31 00:27:18;;;;;;;2.53;0.93;;;3.30;99.90;;;;;;5115017;27;20086;-77
2022/03/31 00:29:44;;;;;;;5.15;1.17;;;3.20;99.90;;;;;;5122162;27;20039;-77
2022/03/31 00:32:09;;;;;;;4.32;1.95;;;3.10;99.90;;;;;;5093961;28;20036;-77
2022/03/31 00:34:35;;;;;;;3.90;1.13;;;3.10;99.90;;;;;;5092649;28;20085;-80
2022/03/31 00:37:01;;;;;;;6.18;2.28;;;3.10;99.90;;;;;;5106340;27;20050;-79
2022/03/31 00:39:32;;;;;;;3.83;1.10;;;3.10;99.90;;;;;;5102152;28;20119;-78
2022/03/31 00:42:01;;;;;;;;;;;3.10;99.90;;;;;;5096119;28;20048;-78
2022/03/31 00:44:27;;;;;;;5.30;1.67;;;3.20;99.90;;;;;;5095955;28;20326;-78
2022/03/31 00:46:54;;;;;;;8.00;0.95;;;3.20;99.90;;;;;;5110157;28;20069;-78
2022/03/31 00:49:21;;;;;;;2.33;0.75;;;3.10;99.90;;;;;;5105305;28;20036;-78
2022/03/31 00:51:48;;;;;;;2.80;0.63;;;3.20;99.90;;;;;;5094058;28;20170;-79
2022/03/31 00:54:17;;;;;;;4.63;1.10;;;3.20;99.90;;;;;;5095989;28;20043;-78
2022/03/31 00:56:44;;;;;;;6.57;1.92;;;3.10;99.90;;;;;;5104132;28;20052;-78
2022/03/31 00:59:13;;;;;;;7.18;1.20;;;3.20;99.90;;;;;;5108793;28;20051;-77
2022/03/31 01:01:40;;;;;;;8.57;2.10;;;3.10;99.90;;;;;;5102240;27;20028;-77
2022/03/31 01:04:06;;;;;;;4.57;1.00;;;3.20;99.90;;;;;;5089926;28;20386;-78
2022/03/31 01:06:33;;;;;;;6.20;1.60;;;3.20;99.90;;;;;;5095525;28;20128;-77
2022/03/31 01:08:59;;;;;;;5.00;1.00;;;3.10;99.90;;;;;;5108588;28;20055;-77
2022/03/31 01:11:25;;;;;;;5.05;1.40;;;3.20;99.90;;;;;;5106815;28;20405;-79
2022/03/31 01:13:52;;;;;;;3.85;2.05;;;3.20;99.90;;;;;;5112407;28;20035;-76
2022/03/31 01:16:17;;;;;;;5.00;1.55;;;3.20;99.90;;;;;;5088566;28;20127;-76
2022/03/31 01:18:43;;;;;;;4.30;1.25;;;3.20;99.90;;;;;;5095750;28;20123;-77
2022/03/31 01:21:12;;;;;;;4.00;1.10;;;3.20;99.90;;;;;;5108790;28;20032;-77
2022/03/31 01:23:38;;;;;;;4.25;1.00;;;3.20;99.90;;;;;;5112599;27;20409;-77
2022/03/31 01:26:11;;;;;;;5.10;0.95;;;3.20;99.90;;;;;;5124880;27;20044;-78
2022/03/31 01:28:41;;;;;;;8.95;1.60;;;3.20;99.90;;;;;;5129648;27;20039;-77
2022/03/31 01:31:09;;;;;;;4.85;0.80;;;3.20;99.90;;;;;;5105158;27;20054;-77
2022/03/31 01:33:34;;;;;;;1.58;0.90;;;3.20;99.90;;;;;;5097024;28;20043;-77
2022/03/31 01:36:07;;;;;;;4.60;1.10;;;3.20;99.90;;;;;;5098248;28;20031;-77
2022/03/31 01:38:33;;;;;;;5.03;1.10;;;3.20;99.90;;;;;;5107147;28;20343;-77
2022/03/31 01:40:59;;;;;;;5.82;1.75;;;3.30;99.90;;;;;;5126943;28;20039;-77
2022/03/31 01:43:26;;;;;;;3.72;1.42;;;3.20;99.90;;;;;;5129656;27;20382;-77
2022/03/31 01:45:53;;;;;;;9.40;1.65;;;3.20;99.90;;;;;;5130193;27;20039;-76
2022/03/31 01:48:21;;;;;;;7.82;1.48;;;3.20;99.90;;;;;;5114079;27;20036;-77
2022/03/31 01:50:48;;;;;;;4.43;1.42;;;3.20;99.90;;;;;;5126446;27;20074;-76
2022/03/31 01:53:19;;;;;;;6.65;1.83;;;3.20;99.90;;;;;;5100231;27;20410;-77
2022/03/31 01:55:45;;;;;;;11.25;2.17;;;3.20;99.90;;;;;;5112083;27;20040;-77
2022/03/31 01:58:10;;;;;;;5.20;1.38;;;3.20;99.90;;;;;;5112321;27;20509;-77
2022/03/31 02:00:36;;;;;;;5.75;1.55;;;3.20;99.90;;;;;;5102564;27;20043;-77
2022/03/31 02:03:02;;;;;;;8.35;1.33;;;3.20;99.90;;;;;;5096770;27;20044;-77
2022/03/31 02:05:28;;;;;;;4.22;1.38;;;3.20;99.90;;;;;;5085420;28;20043;-77
2022/03/31 02:07:57;;;;;;;1.70;1.20;;;3.20;99.90;;;;;;5111465;27;20047;-78
2022/03/31 02:10:25;;;;;;;4.43;1.67;;;3.10;99.90;;;;;;5110707;28;20039;-77
2022/03/31 02:12:51;;;;;;;8.55;1.35;;;3.20;99.90;;;;;;5112511;28;20042;-77
2022/03/31 02:15:20;;;;;;;6.93;1.02;;;3.20;99.90;;;;;;5112311;27;20036;-76
2022/03/31 02:17:46;;;;;;;8.48;1.02;;;3.10;99.90;;;;;;5092807;28;20523;-76
2022/03/31 02:20:12;;;;;;;5.15;1.77;;;3.10;99.90;;;;;;5101907;28;20351;-76
2022/03/31 02:22:39;;;;;;;10.65;2.25;;;3.20;99.90;;;;;;5111514;28;20049;-76
2022/03/31 02:25:08;;;;;;;4.45;1.80;;;3.20;99.90;;;;;;5092741;27;20097;-79
2022/03/31 02:27:38;;;;;;;5.88;1.65;;;3.20;99.90;;;;;;5091891;28;20092;-77
2022/03/31 02:30:05;;;;;;;4.72;1.73;;;3.20;99.90;;;;;;5110947;27;20401;-77
2022/03/31 02:32:31;;;;;;;4.57;1.60;;;3.20;99.90;;;;;;5108201;28;20508;-76
2022/03/31 02:34:57;;;;;;;6.38;1.60;;;3.20;99.90;;;;;;5108502;27;20039;-77
2022/03/31 02:37:23;;;;;;;5.50;1.35;;;3.20;99.90;;;;;;5107037;27;20082;-77
2022/03/31 02:39:49;;;;;;;12.90;2.22;;;3.20;99.90;;;;;;5111539;28;20031;-77
2022/03/31 02:42:16;;;;;;;2.65;1.30;;;3.20;99.90;;;;;;5092917;28;20056;-77
2022/03/31 02:44:43;;;;;;;3.25;1.10;;;3.20;99.90;;;;;;5092385;28;20050;-78
2022/03/31 02:47:09;;;;;;;5.05;2.00;;;3.20;99.90;;;;;;5090746;28;20043;-77
2022/03/31 02:49:35;;;;;;;2.83;1.15;;;3.30;99.90;;;;;;5104839;28;20043;-77
2022/03/31 02:52:01;;;;;;;3.33;1.67;;;3.30;99.90;;;;;;5110933;28;20036;-77
2022/03/31 02:57:12;;;;;;;12.88;1.90;;;3.30;99.90;;;;;;5104575;27;20163;-77
2022/03/31 02:59:38;;;;;;;7.47;3.03;;;3.40;99.90;;;;;;5091053;28;20426;-77
2022/03/31 03:02:04;;;;;;;4.38;1.70;;;3.30;99.90;;;;;;5111862;27;20115;-78
2022/03/31 03:04:30;;;;;;;5.95;2.13;;;3.30;99.90;;;;;;5107733;28;20036;-77
2022/03/31 03:06:55;;;;;;;4.57;1.50;;;3.30;99.90;;;;;;5106481;28;20042;-77
2022/03/31 03:09:21;;;;;;;6.55;2.53;;;3.30;99.90;;;;;;5103588;27;20096;-77
2022/03/31 03:11:47;;;;;;;4.03;1.90;;;3.30;99.90;;;;;;5107954;28;20047;-77
2022/03/31 03:14:14;;;;;;;5.10;2.88;;;3.20;99.90;;;;;;5106990;27;20385;-77
2022/03/31 03:16:40;;;;;;;5.03;2.65;;;3.10;99.90;;;;;;5090312;27;20035;-78
2022/03/31 03:19:06;;;;;;;6.05;3.20;;;3.10;99.90;;;;;;5090811;28;20057;-76
2022/03/31 03:21:32;;;;;;;7.93;2.70;;;3.20;99.90;;;;;;5111805;27;20156;-76
2022/03/31 03:23:57;;;;;;;10.45;4.25;;;3.20;99.90;;;;;;5111200;27;20051;-76
2022/03/31 03:26:23;;;;;;;7.00;3.38;;;3.20;99.90;;;;;;5093716;28;20115;-76
2022/03/31 03:28:48;;;;;;;5.00;3.25;;;3.20;99.90;;;;;;5096306;28;20036;-76
2022/03/31 03:31:14;;;;;;;11.13;3.78;;;3.20;99.90;;;;;;5103118;27;20087;-76
2022/03/31 03:33:40;;;;;;;7.53;4.10;;;3.20;99.90;;;;;;5098860;28;20093;-76
2022/03/31 03:36:10;;;;;;;6.35;3.90;;;3.30;99.90;;;;;;5093242;27;20953;-76
2022/03/31 03:38:36;;;;;;;5.03;4.35;;;3.30;99.90;;;;;;5107708;28;20040;-76
2022/03/31 03:41:02;;;;;;;7.60;5.32;;;3.30;99.90;;;;;;5097591;28;20121;-75
2022/03/31 03:43:28;;;;;;;7.25;5.63;;;3.30;99.90;;;;;;5097628;28;20051;-75
2022/03/31 03:45:54;;;;;;;6.30;4.75;;;3.30;99.90;;;;;;5099999;28;20040;-76
2022/03/31 03:48:21;;;;;;;6.22;5.47;;;3.30;99.90;;;;;;5106383;28;20043;-76
2022/03/31 03:50:48;;;;;;;6.68;4.47;;;3.30;99.90;;;;;;5105184;28;20108;-75
2022/03/31 03:53:14;;;;;;;7.10;5.30;;;3.30;99.90;;;;;;5106577;27;20117;-76
2022/03/31 03:55:40;;;;;;;7.32;3.95;;;3.20;99.90;;;;;;5106083;28;20044;-76
2022/03/31 03:58:06;;;;;;;3.47;2.85;;;3.10;99.90;;;;;;5105680;28;20492;-76
2022/03/31 04:00:32;;;;;;;6.75;3.55;;;3.10;99.90;;;;;;5091836;28;20819;-76
2022/03/31 04:02:58;;;;;;;5.75;3.00;;;3.00;99.90;;;;;;5097387;28;20059;-78
2022/03/31 04:05:24;;;;;;;3.85;3.10;;;3.10;99.90;;;;;;5098799;28;20036;-75
2022/03/31 04:07:50;;;;;;;4.05;3.40;;;3.10;99.90;;;;;;5094709;28;20039;-75
2022/03/31 04:10:16;;;;;;;2.85;2.47;;;3.10;99.90;;;;;;5095566;28;20044;-78
2022/03/31 04:12:42;;;;;;;2.70;2.13;;;3.10;99.90;;;;;;5110048;28;20405;-77
2022/03/31 04:15:08;;;;;;;3.30;2.17;;;3.10;99.90;;;;;;5113430;27;20110;-78
2022/03/31 04:17:35;;;;;;;5.55;2.75;;;3.20;99.90;;;;;;5107218;28;20048;-78
2022/03/31 04:20:01;;;;;;;3.30;3.00;;;3.10;99.90;;;;;;5110518;28;20467;-77
2022/03/31 04:22:27;;;;;;;4.78;2.90;;;3.20;99.90;;;;;;5105643;28;20043;-78
2022/03/31 04:24:53;;;;;;;5.85;3.50;;;3.10;99.90;;;;;;5104966;28;20127;-77
2022/03/31 04:27:19;;;;;;;4.25;3.08;;;3.10;99.90;;;;;;5107160;27;20048;-77
2022/03/31 04:29:44;;;;;;;4.70;3.67;;;3.20;99.90;;;;;;5108438;28;20062;-78
2022/03/31 04:32:10;;;;;;;5.22;2.92;;;3.20;99.90;;;;;;5100756;28;20040;-78
2022/03/31 04:34:36;;;;;;;3.90;3.05;;;3.00;99.90;;;;;;5089990;28;20131;-78
2022/03/31 04:37:02;;;;;;;3.72;3.00;;;3.10;99.90;;;;;;5088843;28;20040;-78
2022/03/31 04:39:27;;;;;;;5.30;3.70;;;3.00;99.90;;;;;;5096639;27;20494;-77
2022/03/31 04:41:53;;;;;;;6.60;5.43;;;3.00;99.90;;;;;;5088318;28;20056;-78
2022/03/31 04:44:19;;;;;;;7.43;5.60;;;2.90;99.90;;;;;;5110212;28;20090;-78
2022/03/31 04:46:46;;;;;;;8.50;6.20;;;3.00;99.90;;;;;;5093525;28;20128;-78
2022/03/31 04:49:11;;;;;;;9.85;7.25;;;2.90;99.90;;;;;;5089650;28;20047;-78
2022/03/31 04:51:37;;;;;;;8.85;7.13;;;2.90;99.90;;;;;;5094761;28;20490;-77
2022/03/31 04:54:03;;;;;;;8.85;6.78;;;2.70;99.90;;;;;;5109192;27;20387;-78
2022/03/31 04:56:29;;;;;;;6.97;6.22;;;2.70;99.90;;;;;;5092018;28;20046;-78
2022/03/31 04:58:54;;;;;;;10.32;6.57;;;2.70;99.90;;;;;;5090983;28;20097;-80
2022/03/31 05:01:22;;;;;;;5.78;4.97;;;2.70;99.90;;;;;;5105709;28;20047;-80
2022/03/31 05:03:48;;;;;;;5.65;5.07;;;2.70;99.90;;;;;;5095732;28;20086;-83
2022/03/31 05:06:14;;;;;;;5.30;4.43;;;2.60;99.90;;;;;;5088969;28;20098;-78
2022/03/31 05:08:39;;;;;;;6.50;4.38;;;2.60;99.90;;;;;;5105272;28;20040;-78
2022/03/31 05:11:05;;;;;;;6.75;5.03;;;2.60;99.90;;;;;;5096350;28;20027;-77
2022/03/31 05:13:30;;;;;;;8.30;4.07;;;2.70;99.90;;;;;;5098422;28;20094;-78
2022/03/31 05:15:56;;;;;;;5.13;4.35;;;2.50;99.90;;;;;;5109994;27;20040;-77
2022/03/31 05:18:21;;;;;;;8.90;3.65;;;2.50;99.90;;;;;;5097578;27;20523;-77
2022/03/31 05:20:47;;;;;;;3.75;3.10;;;2.60;99.90;;;;;;5089027;28;20047;-76
2022/03/31 05:23:13;;;;;;;6.90;3.38;;;2.50;99.90;;;;;;5106538;28;20040;-76
2022/03/31 05:25:39;;;;;;;6.35;4.10;;;2.50;99.90;;;;;;5098218;28;20096;-76
2022/03/31 05:28:05;;;;;;;4.97;2.55;;;2.60;99.90;;;;;;5097146;27;20192;-76
2022/03/31 05:30:31;;;;;;;7.47;3.10;;;2.60;99.90;;;;;;5106912;27;20032;-76
2022/03/31 05:32:58;;;;;;;5.85;3.20;;;2.70;99.90;;;;;;5108221;27;20051;-75
2022/03/31 05:35:24;;;;;;;5.32;3.55;;;2.60;99.90;;;;;;5107691;28;20138;-77
2022/03/31 05:37:50;;;;;;;5.45;3.10;;;2.60;99.90;;;;;;5100806;28;20047;-78
2022/03/31 05:40:17;;;;;;;6.18;2.83;;;2.70;99.90;;;;;;5112691;28;20031;-76
2022/03/31 05:42:43;;;;;;;6.13;4.00;;;2.60;99.90;;;;;;5114787;27;20047;-76
2022/03/31 05:45:10;;;;;;;4.75;3.15;;;2.60;99.90;;;;;;5113284;28;20044;-77
2022/03/31 05:47:36;;;;;;;7.45;3.83;;;2.60;99.90;;;;;;5111751;28;20079;-76
2022/03/31 05:50:03;;;;;;;9.93;3.75;;;2.70;99.90;;;;;;5093032;28;20047;-77
2022/03/31 05:52:29;;;;;;;5.68;4.28;;;2.60;99.90;;;;;;5104454;27;20431;-76
2022/03/31 05:54:54;;;;;;;9.90;5.22;;;2.70;99.90;;;;;;5113568;28;20040;-76
2022/03/31 05:57:21;;;;;;;8.23;5.32;;;2.60;99.90;;;;;;5110952;27;20040;-77
2022/03/31 05:59:46;;;;;;;6.53;4.90;;;2.80;99.90;;;;;;5113053;27;20079;-76
2022/03/31 06:02:12;;;;;;;7.25;4.78;;;2.80;99.90;;;;;;5109081;28;20119;-76
2022/03/31 06:04:39;;;;;;;11.35;6.70;;;2.90;99.90;;;;;;5111948;28;20040;-77
2022/03/31 06:07:05;;;;;;;5.40;4.30;;;2.90;99.90;;;;;;5100602;28;20039;-78
2022/03/31 06:09:31;;;;;;;6.30;5.70;;;2.90;99.90;;;;;;5093324;28;20120;-78
2022/03/31 06:11:57;;;;;;;7.53;4.60;;;3.00;99.90;;;;;;5107049;28;20122;-78
2022/03/31 06:14:22;;;;;;;7.40;5.18;;;2.90;99.90;;;;;;5112157;27;20036;-77
2022/03/31 06:16:49;;;;;;;9.40;5.53;;;3.00;99.90;;;;;;5098854;28;20557;-77
2022/03/31 06:19:15;;;;;;;9.65;4.88;;;3.00;99.90;;;;;;5110355;28;20083;-78
2022/03/31 06:21:42;;;;;;;8.55;5.35;;;3.00;99.90;;;;;;5103562;28;20047;-78
2022/03/31 06:24:08;;;;;;;7.82;6.25;;;3.10;99.90;;;;;;5106769;27;20051;-77
2022/03/31 06:26:34;;;;;;;8.73;6.32;;;3.10;99.90;;;;;;5105691;28;20044;-78
2022/03/31 06:29:00;;;;;;;7.55;5.72;;;3.10;99.90;;;;;;5110503;27;20517;-78
2022/03/31 06:31:26;;;;;;;7.70;6.88;;;3.20;99.90;;;;;;5101909;28;20032;-76
2022/03/31 06:33:53;;;;;;;10.05;7.30;;;3.20;99.90;;;;;;5111560;28;20047;-76
2022/03/31 06:36:19;;;;;;;7.25;6.50;;;3.10;99.90;;;;;;5089854;27;20047;-76
2022/03/31 06:38:46;;;;;;;9.68;6.80;;;3.20;99.90;;;;;;5092289;28;20047;-76
2022/03/31 06:41:17;;;;;;;9.63;7.53;;;3.30;99.90;;;;;;5105008;28;20046;-77
2022/03/31 06:43:46;;;;;;;9.65;7.22;;;3.40;99.90;;;;;;5100713;28;20039;-78
2022/03/31 06:46:12;;;;;;;7.93;6.00;;;3.40;99.90;;;;;;5106354;28;20401;-77
2022/03/31 06:48:42;;;;;;;6.68;5.53;;;3.40;99.90;;;;;;5103534;28;20088;-77
2022/03/31 06:51:10;;;;;;;8.52;6.38;;;3.20;99.90;;;;;;5100287;28;20072;-76
2022/03/31 06:53:39;;;;;;;5.63;4.72;;;3.30;99.90;;;;;;5097825;27;20040;-76
2022/03/31 06:56:06;;;;;;;5.47;4.93;;;3.20;99.90;;;;;;5103820;28;20036;-77
2022/03/31 06:58:32;;;;;;;4.90;4.40;;;3.40;99.90;;;;;;5109410;27;20039;-77
2022/03/31 07:00:58;;;;;;;5.70;4.57;;;3.40;99.90;;;;;;5096767;28;20124;-77
2022/03/31 07:03:23;;;;;;;4.88;4.35;;;3.40;99.90;;;;;;5114087;27;20455;-77
2022/03/31 07:05:49;;;;;;;6.47;4.95;;;3.40;99.90;;;;;;5110262;27;20393;-76
2022/03/31 07:08:15;;;;;;;5.15;4.65;;;3.40;99.90;;;;;;5095452;28;20047;-79
2022/03/31 07:10:41;;;;;;;5.28;4.65;;;3.30;99.90;;;;;;5101137;28;20119;-81
2022/03/31 07:13:06;;;;;;;6.32;5.72;;;3.60;99.90;;;;;;5110551;28;20039;-81
2022/03/31 07:15:33;;;;;;;4.55;4.13;;;3.50;99.90;;;;;;5111904;27;20126;-80
2022/03/31 07:18:03;;;;;;;4.32;3.90;;;3.50;99.90;;;;;;5111196;27;20051;-80
2022/03/31 07:20:29;;;;;;;5.32;4.78;;;3.40;99.90;;;;;;5090406;28;20044;-81
2022/03/31 07:22:55;;;;;;;5.70;5.15;;;3.40;99.90;;;;;;5102365;27;20043;-80
2022/03/31 07:25:22;;;;;;;5.88;5.38;;;3.50;99.90;;;;;;5111381;28;20055;-79
2022/03/31 07:27:49;;;;;;;5.20;4.70;;;3.50;99.90;;;;;;5119828;27;20134;-77
2022/03/31 07:30:16;;;;;;;5.53;4.78;;;3.50;99.90;;;;;;5105005;27;20043;-79
2022/03/31 07:32:56;;;;;;;5.10;4.60;;;3.50;99.90;;;;;;5104478;27;20379;-77
2022/03/31 07:35:23;;;;;;;;;;;3.30;99.90;;;;;;5071990;28;20051;-78
2022/03/31 07:37:51;;;;;;;5.28;4.78;;;3.30;99.90;;;;;;5102654;27;19926;-77
2022/03/31 07:40:17;;;;;;;5.30;4.80;;;3.30;99.90;;;;;;5130572;27;20050;-77
2022/03/31 07:42:43;;;;;;;6.20;5.55;;;3.40;99.90;;;;;;5099145;27;20036;-77
2022/03/31 07:45:09;;;;;;;5.25;4.75;;;3.50;99.90;;;;;;5097955;27;20512;-78
2022/03/31 07:47:35;;;;;;;6.63;5.85;;;3.30;99.90;;;;;;5129398;27;20508;-78
2022/03/31 07:50:00;;;;;;;7.28;6.60;;;3.50;99.90;;;;;;5109037;27;20031;-77
2022/03/31 07:52:26;;;;;;;6.35;5.75;;;3.40;99.90;;;;;;5097115;27;20520;-78
2022/03/31 07:54:52;;;;;;;7.78;7.03;;;3.40;99.90;;;;;;5096049;28;20165;-78
2022/03/31 07:57:19;;;;;;;7.68;6.78;;;3.40;99.90;;;;;;5090385;28;20043;-77
2022/03/31 07:59:44;;;;;;;7.88;6.95;;;3.40;99.90;;;;;;5108959;28;20051;-82
2022/03/31 08:02:10;;;;;;;7.65;6.95;;;3.60;99.90;;;;;;5097461;27;20054;-80
2022/03/31 08:04:35;;;;;;;7.32;6.63;;;3.70;99.90;;;;;;5104789;27;20088;-81
2022/03/31 08:07:01;;;;;;;8.88;7.57;;;3.50;99.90;;;;;;5097724;28;20521;-79
2022/03/31 08:09:27;;;;;;;9.80;7.15;;;3.50;99.90;;;;;;5095600;28;20039;-82
2022/03/31 08:11:52;;;;;;;9.07;7.68;;;3.50;99.90;;;;;;5101160;28;20036;-81
2022/03/31 08:14:21;;;;;;;8.57;7.68;;;3.50;99.90;;;;;;5104053;28;20557;-77
2022/03/31 08:16:48;;;;;;;10.18;7.97;;;3.60;99.90;;;;;;5113025;27;20394;-77
2022/03/31 08:19:15;;;;;;;10.18;8.90;;;3.50;99.90;;;;;;5100661;28;20050;-80
2022/03/31 08:21:42;;;;;;;9.63;8.10;;;3.60;99.90;;;;;;5090898;27;20109;-80
2022/03/31 08:24:08;;;;;;;8.95;7.43;;;3.60;99.90;;;;;;5091403;28;20134;-78
2022/03/31 08:26:34;;;;;;;9.35;8.43;;;3.70;99.90;;;;;;5089639;28;20071;-77
2022/03/31 08:29:00;;;;;;;7.57;6.78;;;3.50;99.90;;;;;;5109169;27;20032;-83
2022/03/31 08:31:27;;;;;;;8.95;6.95;;;3.50;99.90;;;;;;5100514;27;20547;-85
2022/03/31 08:33:53;;;;;;;8.10;7.30;;;3.60;99.90;;;;;;5103436;28;20047;-84
2022/03/31 08:36:19;;;;;;;7.70;6.93;;;3.50;99.90;;;;;;5103884;28;20062;-75
2022/03/31 08:38:45;;;;;;;9.07;7.55;;;3.60;99.90;;;;;;5092201;28;20052;-81
2022/03/31 08:41:12;;;;;;;8.35;7.25;;;3.50;99.90;;;;;;5107335;28;20043;-81
2022/03/31 08:43:42;;;;;;;8.27;7.40;;;3.40;99.90;;;;;;5109879;28;20165;-85
2022/03/31 08:46:10;;;;;;;8.48;7.70;;;3.60;99.90;;;;;;5099542;27;20051;-80
2022/03/31 08:48:37;;;;;;;7.50;6.07;;;3.60;99.90;;;;;;5108766;28;20067;-80
2022/03/31 08:51:04;;;;;;;6.95;5.57;;;3.60;99.90;;;;;;5104741;27;20044;-81
2022/03/31 08:53:31;;;;;;;6.40;5.70;;;3.40;99.90;;;;;;5106073;28;20132;-80
2022/03/31 08:55:56;;;;;;;6.78;6.05;;;3.40;99.90;;;;;;5089028;27;20055;-80
2022/03/31 08:58:22;;;;;;;10.00;6.40;;;3.30;99.90;;;;;;5105530;28;20039;-80
2022/03/31 09:00:48;;;;;;;7.70;6.97;;;3.30;99.90;;;;;;5089603;28;20108;-81
2022/03/31 09:03:13;;;;;;;7.30;6.45;;;3.30;99.90;;;;;;5089307;28;20086;-81
2022/03/31 09:05:49;;;;;;;8.05;6.47;;;3.30;99.90;;;;;;5087813;28;20036;-81
2022/03/31 09:08:18;;;;;;;9.15;8.15;;;3.30;99.90;;;;;;5089532;28;20137;-81
2022/03/31 09:10:57;;;;;;;7.90;6.90;;;3.30;99.90;;;;;;5098397;28;20050;-82
2022/03/31 09:13:37;;;;;;;8.13;6.93;;;3.40;99.90;;;;;;5106357;28;20486;-81
2022/03/31 09:16:10;;;;;;;6.85;6.13;;;3.20;99.90;;;;;;5101045;28;20044;-81
2022/03/31 09:18:38;;;;;;;7.65;6.82;;;3.30;99.90;;;;;;5087508;28;20537;-80
2022/03/31 09:21:06;;;;;;;8.02;7.22;;;3.30;99.90;;;;;;5110336;28;20094;-80
2022/03/31 09:23:46;;;;;;;8.00;6.40;;;3.40;99.90;;;;;;5070543;28;20056;-80
2022/03/31 09:26:14;;;;;;;8.85;7.70;;;3.20;99.90;;;;;;5104866;28;20113;-80
2022/03/31 09:28:41;;;;;;;10.52;8.05;;;3.30;99.90;;;;;;5097452;28;20134;-82
2022/03/31 09:31:10;;;;;;;8.27;6.97;;;3.00;99.90;;;;;;5102484;28;20052;-81
2022/03/31 09:33:53;;;;;;;8.93;7.47;;;2.90;99.90;;;;;;5103826;28;20116;-83
2022/03/31 09:36:22;;;;;;;10.90;8.20;;;3.00;99.90;;;;;;5124441;28;20035;-82
2022/03/31 09:38:51;;;;;;;10.40;8.35;;;3.00;99.90;;;;;;5090182;28;20048;-81
2022/03/31 09:41:30;;;;;;;11.15;8.85;;;3.00;99.90;;;;;;5111512;28;20401;-78
2022/03/31 09:43:59;;;;;;;13.88;9.15;;;2.90;99.90;;;;;;5129989;27;20078;-83
2022/03/31 09:46:33;;;;;;;11.68;8.75;;;2.90;99.90;;;;;;5116505;27;20039;-82
2022/03/31 09:49:09;;;;;;;11.20;9.88;;;2.90;99.90;;;;;;5106122;28;20135;-82
2022/03/31 09:51:35;;;;;;;11.05;8.73;;;2.80;99.90;;;;;;5106055;28;20419;-83
2022/03/31 09:54:01;;;;;;;11.82;9.57;;;2.80;99.90;;;;;;5088792;28;20090;-82
2022/03/31 09:56:27;;;;;;;11.63;8.35;;;2.80;99.90;;;;;;5088336;28;20040;-82
2022/03/31 09:58:56;;;;;;;10.80;8.13;;;2.60;99.90;;;;;;5096683;28;20105;-81
2022/03/31 10:01:22;;;;;;;10.52;8.07;;;2.70;99.90;;;;;;5090071;27;20028;-82
2022/03/31 10:03:49;;;;;;;9.95;8.02;;;2.80;99.90;;;;;;5105271;28;20434;-82
2022/03/31 10:06:16;;;;;;;11.25;9.23;;;2.70;99.90;;;;;;5104732;28;20079;-82
2022/03/31 10:08:44;;;;;;;8.85;6.97;;;2.80;99.90;;;;;;5090630;28;20046;-83
2022/03/31 10:11:11;;;;;;;8.40;6.70;;;2.90;99.90;;;;;;5087917;28;20051;-84
2022/03/31 10:13:43;;;;;;;7.18;6.40;;;2.80;99.90;;;;;;5091985;28;20044;-83
2022/03/31 10:16:14;;;;;;;6.03;5.13;;;2.90;99.90;;;;;;5101958;27;20118;-84
2022/03/31 10:18:40;;;;;;;5.47;4.85;;;2.70;99.90;;;;;;5111546;28;20082;-84
2022/03/31 10:21:06;;;;;;;5.85;5.25;;;2.70;99.90;;;;;;5093401;28;20036;-76
2022/03/31 10:26:27;;;;;;;5.40;4.07;;;2.80;99.90;;;;;;5108770;28;20100;-82
2022/03/31 10:29:02;;;;;;;5.47;4.97;;;2.70;99.90;;;;;;5093367;28;20444;-89
2022/03/31 10:31:43;;;;;;;5.70;4.97;;;2.50;99.90;;;;;;5097916;28;20040;-86
2022/03/31 10:34:09;;;;;;;6.97;5.68;;;2.60;99.90;;;;;;5113310;27;20040;-86
2022/03/31 10:36:45;;;;;;;6.38;5.45;;;2.40;99.90;;;;;;5104780;28;20040;-88
2022/03/31 10:39:24;;;;;;;7.53;5.47;;;2.30;99.90;;;;;;5113256;28;20042;-90
2022/03/31 10:42:05;;;;;;;5.50;4.72;;;2.40;99.90;;;;;;5113817;28;20087;-89
2022/03/31 10:44:31;;;;;;;7.60;5.20;;;2.20;99.90;;;;;;5101724;27;20117;-90
2022/03/31 10:47:09;;;;;;;7.72;6.18;;;2.20;99.90;;;;;;5095987;28;20761;-87
2022/03/31 10:49:35;;;;;;;6.50;5.30;;;2.10;99.90;;;;;;5108372;28;20066;-89
2022/03/31 10:52:23;;;;;;;6.63;5.78;;;2.20;99.90;;;;;;5101560;27;20085;-87
2022/03/31 10:55:03;;;;;;;7.38;5.95;;;2.20;99.90;;;;;;5092099;28;20131;-86
2022/03/31 10:57:39;;;;;;;6.13;4.65;;;2.10;99.90;;;;;;5077823;28;20044;-86
2022/03/31 11:00:09;;;;;;;7.00;5.45;;;2.10;99.90;;;;;;5124690;27;20049;-86
2022/03/31 11:02:45;;;;;;;7.72;5.28;;;2.10;99.90;;;;;;5109601;27;20066;-86
2022/03/31 11:05:12;;;;;;;6.20;5.20;;;1.90;99.90;;;;;;5102639;28;20089;-86
2022/03/31 11:07:38;;;;;;;5.30;4.55;;;1.90;99.90;;;;;;5094290;28;20044;-84
2022/03/31 11:10:11;;;;;;;6.53;5.82;;;1.90;99.90;;;;;;5100466;27;20074;-86
2022/03/31 11:12:38;;;;;;;4.82;4.13;;;2.10;99.90;;;;;;5090718;28;20502;-86
2022/03/31 11:15:08;;;;;;;5.20;4.60;;;2.00;99.90;;;;;;5091729;27;20043;-85
2022/03/31 11:17:39;;;;;;;5.47;4.72;;;2.00;99.90;;;;;;5107262;27;20097;-84
2022/03/31 11:20:22;;;;;;;5.40;4.88;;;2.10;99.90;;;;;;5104659;28;20066;-85
2022/03/31 11:22:59;;;;;;;5.88;4.70;;;2.10;99.90;;;;;;5110004;28;20431;-81
2022/03/31 11:25:25;;;;;;;7.40;4.97;;;2.00;99.90;;;;;;5102441;28;20688;-81
2022/03/31 11:27:52;;;;;;;5.63;5.10;;;1.80;99.90;;;;;;5109522;28;20046;-79
2022/03/31 11:30:29;;;;;;;5.22;4.70;;;2.00;99.90;;;;;;5102716;27;20036;-81
2022/03/31 11:32:56;;;;;;;7.00;5.30;;;1.90;99.90;;;;;;5097559;27;20047;-81
2022/03/31 11:35:24;;;;;;;6.22;5.55;;;2.00;99.90;;;;;;5103885;27;20039;-81
2022/03/31 11:38:01;;;;;;;5.05;4.15;;;2.10;99.90;;;;;;5113145;27;20043;-82
2022/03/31 11:40:32;;;;;;;6.45;5.57;;;1.80;99.90;;;;;;5108762;27;20047;-82
2022/03/31 11:43:00;;;;;;;5.60;4.55;;;1.90;99.90;;;;;;5109796;27;20401;-80
2022/03/31 11:45:31;;;;;;;5.78;5.18;;;1.90;99.90;;;;;;5110290;27;20141;-80
2022/03/31 11:48:00;;;;;;;4.97;4.28;;;1.90;99.90;;;;;;5111744;27;20048;-79
2022/03/31 11:50:28;;;;;;;5.82;4.88;;;1.90;99.90;;;;;;5109392;28;20035;-83
2022/03/31 11:52:54;;;;;;;6.75;4.15;;;1.80;99.90;;;;;;5100083;27;20181;-87
2022/03/31 11:55:21;;;;;;;4.88;4.32;;;1.90;99.90;;;;;;5090584;28;20040;-85
2022/03/31 11:57:58;;;;;;;5.80;4.75;;;1.90;99.90;;;;;;5102552;28;20047;-81
2022/03/31 12:00:28;;;;;;;9.38;5.97;;;1.80;99.90;;;;;;5091523;28;20167;-83
2022/03/31 12:02:59;;;;;;;7.70;5.30;;;1.80;99.90;;;;;;5107680;27;20040;-87
2022/03/31 12:05:25;;;;;;;4.88;4.18;;;1.70;99.90;;;;;;5093874;28;20027;-83
2022/03/31 12:07:53;;;;;;;7.15;5.07;;;1.70;99.90;;;;;;5109246;27;20042;-84
2022/03/31 12:10:19;;;;;;;4.60;3.83;;;1.70;99.90;;;;;;5109297;27;20071;-84
2022/03/31 12:12:47;;;;;;;5.75;4.57;;;1.70;99.90;;;;;;5091508;28;20047;-84
2022/03/31 12:15:22;;;;;;;5.07;4.15;;;1.70;99.90;;;;;;5094380;28;20032;-84
2022/03/31 12:18:03;;;;;;;6.00;5.40;;;1.60;99.90;;;;;;5111745;28;20039;-84
2022/03/31 12:20:29;;;;;;;7.20;5.13;;;1.60;99.90;;;;;;5093335;27;20071;-84
2022/03/31 12:22:55;;;;;;;4.97;4.15;;;1.50;99.90;;;;;;5109015;28;20040;-84
2022/03/31 12:25:30;;;;;;;8.68;4.65;;;1.50;99.90;;;;;;5111141;28;20071;-85
2022/03/31 12:28:07;;;;;;;5.38;4.45;;;1.40;99.90;;;;;;5104506;28;20044;-85
2022/03/31 12:30:47;;;;;;;4.18;3.65;;;1.30;99.90;;;;;;5093542;28;20069;-84
2022/03/31 12:33:34;;;;;;;5.70;4.00;;;1.30;99.90;;;;;;5097559;28;20134;-83
2022/03/31 12:36:01;;;;;;;4.60;3.80;;;1.40;99.90;;;;;;5103879;27;20051;-83
2022/03/31 12:38:44;;;;;;;5.40;4.10;;;1.30;99.90;;;;;;5100414;27;20060;-83
2022/03/31 12:41:17;;;;;;;5.55;4.80;;;1.30;99.90;;;;;;5107398;27;20043;-84
2022/03/31 12:43:58;;;;;;;6.10;4.80;;;1.20;99.90;;;;;;5109222;27;20076;-84
2022/03/31 12:46:28;;;;;;;8.88;6.05;;;1.20;99.90;;;;;;5128322;27;20172;-85
2022/03/31 12:49:01;;;;;;;7.53;5.03;;;1.30;99.90;;;;;;5117143;27;20103;-84
2022/03/31 12:51:27;;;;;;;9.07;5.40;;;1.30;99.90;;;;;;5105562;27;20168;-85
2022/03/31 12:53:53;;;;;;;6.18;5.55;;;1.30;99.90;;;;;;5118819;27;20038;-85
2022/03/31 12:56:28;;;;;;;7.95;6.25;;;1.20;99.90;;;;;;5110911;28;20035;-83
2022/03/31 12:58:58;;;;;;;7.90;5.32;;;1.20;99.90;;;;;;5103212;28;20039;-83
2022/03/31 13:01:27;;;;;;;9.85;6.95;;;1.20;99.90;;;;;;5112576;27;20038;-83
2022/03/31 13:03:54;;;;;;;12.30;9.20;;;1.20;99.90;;;;;;5102600;27;20508;-83
2022/03/31 13:06:20;;;;;;;7.15;5.95;;;1.30;99.90;;;;;;5093647;28;20099;-85
2022/03/31 13:08:45;;;;;;;8.02;6.10;;;1.30;99.90;;;;;;5092045;28;20100;-79
2022/03/31 13:11:11;;;;;;;5.97;5.13;;;1.20;99.90;;;;;;5090696;28;20161;-80